createdAt,value
2019-04-06T00:00:14.750Z,7.70
2019-04-06T00:02:45.138Z,7.70
2019-04-06T00:05:15.514Z,7.70
2019-04-06T00:07:47.922Z,7.70
2019-04-06T00:10:18.684Z,7.70
2019-04-06T00:12:52.533Z,7.70
2019-04-06T00:15:24.746Z,7.70
2019-04-06T00:18:00.846Z,7.70
2019-04-06T00:20:33.918Z,7.70
2019-04-06T00:23:04.156Z,7.70
2019-04-06T00:25:43.722Z,7.70
2019-04-06T00:28:06.758Z,7.70
2019-04-06T00:30:45.990Z,7.70
2019-04-06T00:33:17.692Z,7.70
2019-04-06T00:35:48.593Z,7.70
2019-04-06T00:38:18.928Z,7.70
2019-04-06T00:40:49.374Z,7.70
2019-04-06T00:43:19.793Z,7.70
2019-04-06T00:45:50.396Z,7.70
2019-04-06T00:48:21.070Z,7.70
2019-04-06T00:50:54.883Z,7.70
2019-04-06T00:53:27.133Z,7.70
2019-04-06T00:55:57.457Z,7.60
2019-04-06T00:58:27.878Z,7.60
2019-04-06T01:00:58.153Z,7.70
2019-04-06T01:03:28.672Z,7.70
2019-04-06T01:05:59.268Z,7.70
2019-04-06T01:08:29.629Z,7.70
2019-04-06T01:11:00.373Z,7.70
2019-04-06T01:13:32.247Z,7.70
2019-04-06T01:16:02.439Z,7.70
2019-04-06T01:18:32.603Z,7.70
2019-04-06T01:21:02.723Z,7.70
2019-04-06T01:23:33.320Z,7.70
2019-04-06T01:26:07.369Z,7.70
2019-04-06T01:28:35.907Z,7.70
2019-04-06T01:31:06.251Z,7.70
2019-04-06T01:33:36.593Z,7.70
2019-04-06T01:36:07.013Z,7.70
2019-04-06T01:38:37.731Z,7.70
2019-04-06T01:41:08.291Z,7.80
2019-04-06T01:43:38.860Z,7.70
2019-04-06T01:46:09.223Z,7.70
2019-04-06T01:48:39.781Z,7.70
2019-04-06T01:51:10.155Z,7.70
2019-04-06T01:53:41.381Z,7.70
2019-04-06T01:56:18.288Z,7.70
2019-04-06T01:58:43.303Z,7.70
2019-04-06T02:01:22.687Z,7.70
2019-04-06T02:03:52.991Z,7.70
2019-04-06T02:06:23.426Z,7.70
2019-04-06T02:08:53.818Z,7.80
2019-04-06T02:11:24.304Z,7.70
2019-04-06T02:13:54.838Z,7.70
2019-04-06T02:16:25.196Z,7.70
2019-04-06T02:18:55.387Z,7.70
2019-04-06T02:21:25.586Z,7.70
2019-04-06T02:23:56.341Z,7.70
2019-04-06T02:26:30.955Z,7.70
2019-04-06T02:28:58.462Z,7.80
2019-04-06T02:31:53.798Z,7.80
2019-04-06T02:34:54.971Z,7.80
2019-04-06T02:37:34.495Z,7.80
2019-04-06T02:40:11.435Z,7.80
2019-04-06T02:42:51.033Z,7.80
2019-04-06T02:45:21.256Z,7.80
2019-04-06T02:47:51.473Z,7.80
2019-04-06T02:50:21.998Z,7.80
2019-04-06T02:52:52.440Z,7.80
2019-04-06T02:55:24.088Z,7.80
2019-04-06T02:57:54.394Z,7.80
2019-04-06T03:00:24.955Z,7.80
2019-04-06T03:02:55.352Z,7.80
2019-04-06T03:05:25.853Z,7.80
2019-04-06T03:07:56.464Z,7.80
2019-04-06T03:10:27.192Z,7.80
2019-04-06T03:13:00.485Z,7.80
2019-04-06T03:15:31.152Z,7.80
2019-04-06T03:18:01.962Z,7.80
2019-04-06T03:20:32.202Z,7.80
2019-04-06T03:23:02.539Z,7.80
2019-04-06T03:25:34.646Z,7.80
2019-04-06T03:28:05.132Z,7.80
2019-04-06T03:30:35.898Z,7.80
2019-04-06T03:33:06.329Z,7.80
2019-04-06T03:35:45.119Z,7.80
2019-04-06T03:38:10.518Z,7.80
2019-04-06T03:40:40.874Z,7.80
2019-04-06T03:43:11.165Z,7.80
2019-04-06T03:45:41.743Z,7.80
2019-04-06T03:48:12.350Z,7.80
2019-04-06T03:50:45.582Z,7.80
2019-04-06T03:53:15.837Z,7.80
2019-04-06T03:55:47.354Z,7.80
2019-04-06T03:58:17.679Z,7.80
2019-04-06T04:00:48.258Z,7.80
2019-04-06T04:03:18.639Z,7.80
2019-04-06T04:05:48.953Z,7.80
2019-04-06T04:08:19.273Z,7.80
2019-04-06T04:10:50.044Z,7.80
2019-04-06T04:13:20.440Z,7.80
2019-04-06T04:15:50.849Z,7.80
2019-04-06T04:18:21.269Z,7.80
2019-04-06T04:20:51.875Z,7.80
2019-04-06T04:23:22.029Z,7.80
2019-04-06T04:25:52.299Z,7.80
2019-04-06T04:28:22.483Z,7.80
2019-04-06T04:30:52.783Z,7.80
2019-04-06T04:33:23.366Z,7.80
2019-04-06T04:35:54.206Z,7.80
2019-04-06T04:38:26.923Z,7.80
2019-04-06T04:40:58.302Z,7.80
2019-04-06T04:43:28.937Z,7.80
2019-04-06T04:45:59.088Z,7.80
2019-04-06T04:48:29.357Z,7.80
2019-04-06T04:50:59.550Z,7.80
2019-04-06T04:53:31.160Z,7.80
2019-04-06T04:56:01.583Z,7.80
2019-04-06T04:58:31.888Z,7.90
2019-04-06T05:01:02.379Z,7.90
2019-04-06T05:03:32.863Z,7.90
2019-04-06T05:06:03.087Z,7.90
2019-04-06T05:08:33.436Z,7.90
2019-04-06T05:11:06.421Z,7.90
2019-04-06T05:13:36.631Z,7.90
2019-04-06T05:16:13.925Z,7.90
2019-04-06T05:18:44.767Z,7.90
2019-04-06T05:21:15.372Z,7.90
2019-04-06T05:23:46.831Z,8.00
2019-04-06T05:26:18.907Z,8.00
2019-04-06T05:28:49.133Z,8.00
2019-04-06T05:31:19.748Z,8.00
2019-04-06T05:33:50.372Z,8.00
2019-04-06T05:36:20.657Z,8.00
2019-04-06T05:38:50.948Z,8.00
2019-04-06T05:41:21.638Z,8.00
2019-04-06T05:43:52.119Z,8.00
2019-04-06T05:46:22.442Z,8.10
2019-04-06T05:48:52.663Z,8.10
2019-04-06T05:51:23.049Z,8.10
2019-04-06T05:53:59.506Z,8.10
2019-04-06T05:56:29.743Z,8.10
2019-04-06T05:59:00.355Z,8.10
2019-04-06T06:01:31.218Z,8.10
2019-04-06T06:04:01.436Z,8.20
2019-04-06T06:06:31.938Z,8.20
2019-04-06T06:09:02.719Z,8.20
2019-04-06T06:11:33.053Z,8.20
2019-04-06T06:14:05.874Z,8.30
2019-04-06T06:16:38.292Z,8.30
2019-04-06T06:19:08.923Z,8.30
2019-04-06T06:21:40.955Z,8.30
2019-04-06T06:24:11.287Z,8.30
2019-04-06T06:26:41.896Z,8.30
2019-04-06T06:29:12.580Z,8.30
2019-04-06T06:31:43.098Z,8.40
2019-04-06T06:34:13.831Z,8.40
2019-04-06T06:36:44.624Z,8.40
2019-04-06T06:39:15.064Z,8.40
2019-04-06T06:41:45.808Z,8.50
2019-04-06T06:44:20.434Z,8.50
2019-04-06T06:46:50.979Z,8.50
2019-04-06T06:49:24.663Z,8.50
2019-04-06T06:51:55.455Z,8.60
2019-04-06T06:54:25.911Z,8.60
2019-04-06T06:56:59.033Z,8.70
2019-04-06T06:59:30.187Z,8.70
2019-04-06T07:02:01.892Z,8.70
2019-04-06T07:04:35.957Z,8.80
2019-04-06T07:07:07.182Z,8.80
2019-04-06T07:09:38.041Z,8.90
2019-04-06T07:12:08.247Z,8.90
2019-04-06T07:14:38.587Z,9.00
2019-04-06T07:17:10.089Z,9.10
2019-04-06T07:19:40.822Z,9.10
2019-04-06T07:22:13.918Z,9.10
2019-04-06T07:24:44.691Z,9.20
2019-04-06T07:27:15.488Z,9.20
2019-04-06T07:29:46.750Z,9.30
2019-04-06T07:32:18.863Z,9.30
2019-04-06T07:34:49.638Z,9.30
2019-04-06T07:37:20.015Z,9.40
2019-04-06T07:39:50.751Z,9.40
2019-04-06T07:42:21.849Z,9.50
2019-04-06T07:44:52.283Z,9.60
2019-04-06T07:47:23.044Z,9.70
2019-04-06T07:49:54.050Z,9.80
2019-04-06T07:52:24.312Z,9.80
2019-04-06T07:55:22.504Z,9.80
2019-04-06T07:57:53.758Z,9.90
2019-04-06T08:00:26.637Z,9.90
2019-04-06T08:02:57.708Z,9.90
2019-04-06T08:05:31.306Z,9.90
2019-04-06T08:08:05.133Z,10.00
2019-04-06T08:10:36.194Z,10.00
2019-04-06T08:13:07.976Z,10.00
2019-04-06T08:15:57.598Z,10.10
2019-04-06T08:18:29.302Z,10.20
2019-04-06T08:21:00.354Z,10.30
2019-04-06T08:23:45.133Z,10.40
2019-04-06T08:26:18.619Z,10.40
2019-04-06T08:28:59.805Z,10.50
2019-04-06T08:31:24.674Z,10.50
2019-04-06T08:33:57.150Z,10.60
2019-04-06T08:36:42.512Z,10.70
2019-04-06T08:39:09.225Z,10.70
2019-04-06T08:41:39.882Z,10.80
2019-04-06T08:45:02.705Z,11.00
2019-04-06T08:46:46.271Z,11.10
2019-04-06T08:49:18.974Z,11.10
2019-04-06T08:51:54.639Z,11.20
2019-04-06T08:54:32.592Z,11.20
2019-04-06T08:57:05.418Z,11.30
2019-04-06T08:59:39.400Z,11.50
2019-04-06T09:02:11.086Z,11.70
2019-04-06T09:05:26.743Z,11.80
2019-04-06T09:07:57.302Z,11.90
2019-04-06T09:10:28.248Z,12.00
2019-04-06T09:12:59.081Z,12.10
2019-04-06T09:15:42.534Z,12.20
2019-04-06T09:18:13.498Z,12.30
2019-04-06T09:20:44.283Z,12.50
2019-04-06T09:23:16.120Z,12.70
2019-04-06T09:25:47.192Z,12.60
2019-04-06T09:28:21.099Z,12.70
2019-04-06T09:30:55.884Z,12.70
2019-04-06T09:33:27.114Z,12.90
2019-04-06T09:35:59.600Z,13.00
2019-04-06T09:38:31.774Z,13.10
2019-04-06T09:41:07.374Z,13.20
2019-04-06T09:43:39.058Z,13.30
2019-04-06T09:46:28.589Z,13.10
2019-04-06T09:49:30.501Z,13.20
2019-04-06T09:52:26.708Z,13.40
2019-04-06T09:55:22.183Z,13.50
2019-04-06T09:58:25.953Z,13.40
2019-04-06T10:01:09.548Z,13.50
2019-04-06T10:03:57.731Z,13.50
2019-04-06T10:06:49.405Z,13.70
2019-04-06T10:09:58.587Z,13.80
2019-04-06T10:12:47.687Z,14.10
2019-04-06T10:15:46.623Z,14.30
2019-04-06T10:18:47.745Z,14.40
2019-04-06T10:21:40.862Z,14.50
2019-04-06T10:24:29.059Z,14.50
2019-04-06T10:27:30.042Z,14.40
2019-04-06T10:30:22.453Z,14.40
2019-04-06T10:33:22.308Z,14.30
2019-04-06T10:36:04.194Z,14.30
2019-04-06T10:38:58.674Z,14.20
2019-04-06T10:42:06.101Z,14.20
2019-04-06T10:45:07.646Z,14.20
2019-04-06T10:47:53.292Z,14.20
2019-04-06T10:50:32.945Z,14.30
2019-04-06T10:53:19.058Z,14.40
2019-04-06T10:56:14.583Z,14.50
2019-04-06T10:58:54.783Z,14.70
2019-04-06T11:01:50.510Z,14.80
2019-04-06T11:04:58.173Z,14.90
2019-04-06T11:07:48.292Z,14.90
2019-04-06T11:10:29.820Z,15.00
2019-04-06T11:13:38.794Z,15.00
2019-04-06T11:16:21.357Z,15.00
2019-04-06T11:19:30.135Z,15.20
2019-04-06T11:22:32.263Z,15.30
2019-04-06T11:25:18.641Z,15.40
2019-04-06T11:28:10.739Z,15.60
2019-04-06T11:31:06.415Z,15.60
2019-04-06T11:33:57.302Z,15.50
2019-04-06T11:36:49.509Z,15.50
2019-04-06T11:39:51.086Z,15.50
2019-04-06T11:42:39.481Z,15.40
2019-04-06T11:45:16.174Z,15.40
2019-04-06T11:48:20.683Z,15.40
2019-04-06T11:51:25.464Z,15.40
2019-04-06T11:58:55.831Z,15.50
2019-04-06T12:01:58.056Z,15.40
2019-04-06T12:04:51.072Z,15.40
2019-04-06T12:07:36.587Z,15.40
2019-04-06T12:10:25.914Z,15.50
2019-04-06T12:13:48.931Z,15.70
2019-04-06T12:16:48.143Z,15.70
2019-04-06T12:19:43.130Z,15.70
2019-04-06T12:22:54.814Z,15.70
2019-04-06T12:25:54.103Z,15.70
2019-04-06T12:28:33.849Z,15.70
2019-04-06T12:31:16.987Z,15.70
2019-04-06T12:33:58.054Z,15.70
2019-04-06T12:37:02.904Z,15.60
2019-04-06T12:39:58.773Z,15.70
2019-04-06T12:42:52.084Z,15.80
2019-04-06T12:45:42.730Z,15.80
2019-04-06T12:48:31.179Z,15.90
2019-04-06T12:51:18.921Z,16.00
2019-04-06T12:54:25.155Z,16.10
2019-04-06T12:57:17.758Z,16.30
2019-04-06T13:00:18.573Z,16.40
2019-04-06T13:03:10.948Z,16.30
2019-04-06T13:05:59.998Z,16.20
2019-04-06T13:08:56.030Z,16.20
2019-04-06T13:12:06.358Z,16.30
2019-04-06T13:14:50.094Z,16.40
2019-04-06T13:17:40.514Z,16.50
2019-04-06T13:20:19.659Z,16.70
2019-04-06T13:23:13.887Z,16.90
2019-04-06T13:26:04.077Z,16.90
2019-04-06T13:28:55.875Z,16.80
2019-04-06T13:31:45.544Z,16.80
2019-04-06T13:34:43.273Z,16.80
2019-04-06T13:37:31.368Z,16.80
2019-04-06T13:40:21.633Z,16.80
2019-04-06T13:43:13.900Z,16.70
2019-04-06T13:46:08.241Z,16.70
2019-04-06T13:48:57.842Z,16.80
2019-04-06T13:51:53.772Z,17.00
2019-04-06T13:54:37.649Z,17.10
2019-04-06T13:57:39.510Z,17.20
2019-04-06T14:00:37.922Z,17.20
2019-04-06T14:03:18.217Z,17.10
2019-04-06T14:06:02.203Z,16.90
2019-04-06T14:08:47.596Z,16.80
2019-04-06T14:11:29.669Z,16.70
2019-04-06T14:14:19.352Z,16.80
2019-04-06T14:17:10.258Z,16.90
2019-04-06T14:20:09.131Z,17.00
2019-04-06T14:22:55.677Z,17.10
2019-04-06T14:25:53.253Z,17.10
2019-04-06T14:28:42.153Z,16.90
2019-04-06T14:31:37.676Z,16.80
2019-04-06T14:35:01.885Z,16.80
2019-04-06T14:37:59.000Z,16.80
2019-04-06T14:40:46.659Z,16.90
2019-04-06T14:43:48.941Z,17.10
2019-04-06T14:46:48.651Z,17.20
2019-04-06T14:49:38.728Z,17.30
2019-04-06T14:52:15.753Z,17.30
2019-04-06T14:55:09.198Z,17.30
2019-04-06T14:58:01.251Z,17.40
2019-04-06T15:00:50.124Z,17.60
2019-04-06T15:03:42.582Z,17.70
2019-04-06T15:06:31.460Z,17.80
2019-04-06T15:09:35.948Z,17.70
2019-04-06T15:12:20.242Z,17.60
2019-04-06T15:15:45.075Z,17.50
2019-04-06T15:19:06.530Z,17.40
2019-04-06T15:22:04.708Z,17.40
2019-04-06T15:24:52.165Z,17.40
2019-04-06T15:27:40.952Z,17.40
2019-04-06T15:30:24.700Z,17.30
2019-04-06T15:33:33.087Z,17.30
2019-04-06T15:36:31.922Z,17.20
2019-04-06T15:39:22.912Z,17.00
2019-04-06T15:42:21.750Z,16.90
2019-04-06T15:45:15.534Z,16.80
2019-04-06T15:48:52.381Z,16.80
2019-04-06T15:51:49.906Z,16.80
2019-04-06T15:54:46.402Z,16.60
2019-04-06T15:57:28.881Z,16.50
2019-04-06T16:00:24.594Z,16.50
2019-04-06T16:03:17.607Z,16.50
2019-04-06T16:06:06.021Z,16.50
2019-04-06T16:09:09.557Z,16.50
2019-04-06T16:11:59.306Z,16.60
2019-04-06T16:15:02.183Z,16.60
2019-04-06T16:17:58.457Z,16.50
2019-04-06T16:20:53.799Z,16.50
2019-04-06T16:24:03.513Z,16.40
2019-04-06T16:27:12.048Z,16.40
2019-04-06T16:30:51.564Z,16.40
2019-04-06T16:40:52.536Z,16.30
2019-04-06T16:43:54.901Z,16.30
2019-04-06T16:46:59.346Z,16.30
2019-04-06T16:49:55.502Z,16.30
2019-04-06T16:53:20.315Z,16.30
2019-04-06T16:56:18.877Z,16.30
2019-04-06T17:03:31.210Z,16.30
2019-04-06T17:14:50.945Z,16.20
2019-04-06T17:24:49.733Z,16.00
2019-04-06T17:43:37.246Z,15.40
2019-04-06T17:47:12.263Z,15.20
2019-04-06T17:50:14.453Z,15.10
2019-04-06T17:53:24.593Z,14.90
2019-04-06T17:56:37.603Z,14.80
2019-04-06T17:59:45.334Z,14.70
2019-04-06T18:02:27.401Z,14.60
2019-04-06T18:05:10.705Z,14.50
2019-04-06T18:08:05.315Z,14.30
2019-04-06T18:10:58.235Z,14.30
2019-04-06T18:14:02.037Z,14.20
2019-04-06T18:16:38.688Z,14.20
2019-04-06T18:19:16.895Z,14.10
2019-04-06T18:21:50.734Z,14.10
2019-04-06T18:24:25.947Z,14.00
2019-04-06T18:27:18.785Z,13.90
2019-04-06T18:29:52.014Z,13.80
2019-04-06T18:32:38.370Z,13.70
2019-04-06T18:35:12.340Z,13.60
2019-04-06T18:38:02.430Z,13.50
2019-04-06T18:43:21.740Z,13.30
2019-04-06T18:45:53.333Z,13.20
2019-04-06T18:48:35.411Z,13.10
2019-04-06T18:51:17.010Z,13.10
2019-04-06T18:53:47.524Z,12.90
2019-04-06T18:56:20.318Z,12.90
2019-04-06T18:58:53.849Z,12.80
2019-04-06T19:01:26.392Z,12.70
2019-04-06T19:04:06.594Z,12.70
2019-04-06T19:06:43.122Z,12.60
2019-04-06T19:09:23.778Z,12.60
2019-04-06T19:11:55.072Z,12.50
2019-04-06T19:14:30.794Z,12.40
2019-04-06T19:17:07.304Z,12.30
2019-04-06T19:19:46.670Z,12.20
2019-04-06T19:22:18.306Z,12.20
2019-04-06T19:24:52.814Z,12.10
2019-04-06T19:27:25.333Z,12.10
2019-04-06T19:30:02.065Z,12.00
2019-04-06T19:32:39.144Z,12.00
2019-04-06T19:35:17.639Z,11.90
2019-04-06T19:38:00.919Z,11.90
2019-04-06T19:40:40.103Z,11.80
2019-04-06T19:43:17.234Z,11.80
2019-04-06T19:45:51.346Z,11.70
2019-04-06T19:48:25.848Z,11.70
2019-04-06T19:51:24.482Z,11.60
2019-04-06T19:53:56.557Z,11.60
2019-04-06T19:56:29.986Z,11.50
2019-04-06T19:59:12.571Z,11.50
2019-04-06T20:01:48.301Z,11.40
2019-04-06T20:04:50.876Z,11.40
2019-04-06T20:07:31.553Z,11.40
2019-04-06T20:10:10.964Z,11.30
2019-04-06T20:12:44.539Z,11.30
2019-04-06T20:15:16.469Z,11.30
2019-04-06T20:17:50.583Z,11.30
2019-04-06T20:20:31.663Z,11.20
2019-04-06T20:23:11.645Z,11.30
2019-04-06T20:25:46.364Z,11.20
2019-04-06T20:28:46.911Z,11.20
2019-04-06T20:31:39.620Z,11.30
2019-04-06T20:34:11.880Z,11.30
2019-04-06T20:39:34.309Z,11.40
2019-04-06T20:42:19.994Z,11.30
2019-04-06T20:45:06.292Z,11.40
2019-04-06T20:47:45.062Z,11.50
2019-04-06T20:50:29.878Z,11.50
2019-04-06T20:53:12.368Z,11.50
2019-04-06T20:55:46.269Z,11.50
2019-04-06T20:58:23.709Z,11.50
2019-04-06T21:00:56.154Z,11.50
2019-04-06T21:03:31.880Z,11.40
2019-04-06T21:06:22.149Z,11.40
2019-04-06T21:09:10.784Z,11.30
2019-04-06T21:11:48.004Z,11.20
2019-04-06T21:14:40.490Z,11.10
2019-04-06T21:17:27.671Z,11.10
2019-04-06T21:20:08.290Z,11.00
2019-04-06T21:22:58.597Z,10.90
2019-04-06T21:25:31.122Z,10.80
2019-04-06T21:28:02.071Z,10.70
2019-04-06T21:30:41.514Z,10.70
2019-04-06T21:33:14.736Z,10.60
2019-04-06T21:35:52.667Z,10.60
2019-04-06T21:38:24.194Z,10.50
2019-04-06T21:41:03.937Z,10.50
2019-04-06T21:43:43.388Z,10.40
2019-04-06T21:46:14.169Z,10.40
2019-04-06T21:48:46.911Z,10.30
2019-04-06T21:51:20.233Z,10.30
2019-04-06T21:53:50.675Z,10.30
2019-04-06T21:56:22.678Z,10.30
2019-04-06T21:59:00.470Z,10.20
2019-04-06T22:01:35.791Z,10.10
2019-04-06T22:04:08.065Z,10.10
2019-04-06T22:06:41.374Z,10.10
2019-04-06T22:09:18.616Z,10.10
2019-04-06T22:11:49.168Z,10.00
2019-04-06T22:14:27.046Z,10.00
2019-04-06T22:17:05.508Z,10.00
2019-04-06T22:19:39.212Z,10.00
2019-04-06T22:22:11.782Z,10.00
2019-04-06T22:24:50.258Z,10.00
2019-04-06T22:27:21.173Z,10.00
2019-04-06T22:29:57.714Z,10.00
2019-04-06T22:32:33.733Z,10.00
2019-04-06T22:35:11.502Z,9.90
2019-04-06T22:37:42.012Z,9.90
2019-04-06T22:40:13.352Z,9.80
2019-04-06T22:42:47.762Z,9.80
2019-04-06T22:45:20.773Z,9.80
2019-04-06T22:47:56.609Z,9.70
2019-04-06T22:50:34.044Z,9.70
2019-04-06T22:53:04.871Z,9.60
2019-04-06T22:55:35.526Z,9.60
2019-04-06T22:58:06.621Z,9.60
2019-04-06T23:00:48.684Z,9.60
2019-04-06T23:03:48.007Z,9.60
2019-04-06T23:06:28.972Z,9.70
2019-04-06T23:08:59.805Z,9.70
2019-04-06T23:11:30.727Z,9.70
2019-04-06T23:14:04.942Z,9.80
2019-04-06T23:16:35.542Z,9.80
2019-04-06T23:19:06.337Z,9.80
2019-04-06T23:21:37.232Z,9.90
2019-04-06T23:24:10.254Z,9.90
2019-04-06T23:26:45.497Z,9.90
2019-04-06T23:29:16.607Z,9.90
2019-04-06T23:31:53.119Z,9.90
2019-04-06T23:34:24.029Z,9.90
2019-04-06T23:36:55.774Z,10.00
2019-04-06T23:39:27.017Z,10.00
2019-04-06T23:42:04.629Z,10.00
2019-04-06T23:44:35.036Z,10.00
2019-04-06T23:47:05.785Z,10.00
2019-04-06T23:49:38.389Z,10.00
2019-04-06T23:52:12.047Z,10.10
2019-04-06T23:54:44.507Z,10.10
2019-04-06T23:57:16.962Z,10.10
2019-04-06T23:59:52.730Z,10.10
